Wakarusa, Indiana
Current Conditions -  °F | °C
As of 11:53 PM on Sunday 21 Dec 2014 (Local Time) from KGSH Reporting Station
Haze Haze  
Wind Chill: 20°   Ceiling: Unl
Heat Index: 29°   Visibility: 6mi
Dew Point: 25°   Wind: 9mph
Humidity: 85%   Direction: 130°SE
Pressure: 30.1"   Gusts: NA
Location:  41.54°N, 86.02°W
Report Text: KGSH 220453Z AUTO 13008KT 6SM BR CLR M02/M04 A3010 RMK AO2 SLP202 T10171039 400331017
Loading
Personal Weather Stations






























Interactive Weather Map New forecast layout! Learn more

10-Day Weather Forecast

Advertisements
Track Severe Weather on mobile